Bryantville, Massachusetts
Current Conditions -  °F | °C
As of 8:52 PM on Monday 24 Nov 2014 (Local Time) from KPYM Reporting Station
Scattered Clouds Scattered Clouds  
Wind Chill: 61°   Ceiling: Unl
Heat Index: 61°   Visibility: 10mi
Dew Point: 57°   Wind: 15mph
Humidity: 87%   Direction: 220°SW
Pressure: 29.71"   Gusts: 29mph
Location:  42.04°N, 70.84°W
Report Text: KPYM 250152Z AUTO 22013G25KT 10SM SCT016 16/14 A2971 RMK AO2 PK WND 22030/0053 SLP061 T01610139
Loading
Personal Weather Stations






























Interactive Weather Map New forecast layout! Learn more

10-Day Weather Forecast

Advertisements
Track Severe Weather on mobile